createdAt,value
2017-11-05T00:01:34.274Z,99030.17
2017-11-05T00:04:35.753Z,99026.66
2017-11-05T00:07:37.181Z,99024.64
2017-11-05T00:10:38.640Z,99027.11
2017-11-05T00:13:40.087Z,99021.61
2017-11-05T00:16:41.505Z,99028.90
2017-11-05T00:19:43.440Z,99050.26
2017-11-05T00:22:45.568Z,99037.35
2017-11-05T00:25:47.011Z,99037.35
2017-11-05T00:28:48.463Z,99035.86
2017-11-05T00:31:49.816Z,99028.91
2017-11-05T00:34:51.283Z,99025.98
2017-11-05T00:37:52.707Z,99015.94
2017-11-05T00:40:54.115Z,99028.72
2017-11-05T00:43:56.262Z,99026.52
2017-11-05T00:46:57.717Z,99033.28
2017-11-05T00:49:59.141Z,99036.89
2017-11-05T00:53:00.599Z,99030.30
2017-11-05T00:56:02.000Z,99039.93
2017-11-05T00:59:03.570Z,99042.68
2017-11-05T01:02:05.024Z,99046.68
2017-11-05T01:05:06.441Z,99046.74
2017-11-05T01:08:07.826Z,99044.12
2017-11-05T01:11:09.327Z,99041.63
2017-11-05T01:14:10.723Z,99042.23
2017-11-05T01:17:12.131Z,99031.46
2017-11-05T01:20:13.564Z,99041.27
2017-11-05T01:23:14.930Z,99035.55
2017-11-05T01:26:16.375Z,99041.59
2017-11-05T01:29:17.797Z,99027.47
2017-11-05T01:32:19.259Z,99031.61
2017-11-05T01:35:20.675Z,99029.31
2017-11-05T01:38:22.861Z,99040.81
2017-11-05T01:41:24.323Z,99032.06
2017-11-05T01:44:25.772Z,99033.17
2017-11-05T01:47:27.275Z,99022.91
2017-11-05T01:50:28.731Z,99022.12
2017-11-05T01:53:30.190Z,99026.64
2017-11-05T01:56:31.667Z,99019.28
2017-11-05T01:59:33.891Z,99020.81
2017-11-05T02:02:35.342Z,99011.76
2017-11-05T02:05:37.583Z,99013.44
2017-11-05T02:08:39.010Z,99008.34
2017-11-05T02:11:41.192Z,99015.67
2017-11-05T02:14:42.655Z,99003.91
2017-11-05T02:17:44.111Z,99008.46
2017-11-05T02:20:45.620Z,99008.58
2017-11-05T02:23:47.081Z,99003.88
2017-11-05T02:26:49.277Z,99010.19
2017-11-05T02:29:50.708Z,99013.42
2017-11-05T02:32:52.873Z,99023.38
2017-11-05T02:35:55.120Z,99013.47
2017-11-05T02:38:56.606Z,99014.38
2017-11-05T02:41:58.848Z,99019.03
2017-11-05T02:45:00.378Z,99019.92
2017-11-05T02:48:01.914Z,99018.33
2017-11-05T02:51:03.392Z,99039.23
2017-11-05T02:54:04.927Z,99015.55
2017-11-05T02:57:06.445Z,99025.67
2017-11-05T03:00:08.692Z,99032.91
2017-11-05T03:03:10.236Z,99037.79
2017-11-05T03:06:11.726Z,99032.69
2017-11-05T03:09:13.938Z,99031.08
2017-11-05T03:12:15.323Z,99035.72
2017-11-05T03:15:16.742Z,99042.30
2017-11-05T03:18:18.163Z,99035.31
2017-11-05T03:21:19.606Z,99044.72
2017-11-05T03:24:21.801Z,99041.56
2017-11-05T03:27:23.309Z,99041.67
2017-11-05T03:30:24.751Z,99044.38
2017-11-05T03:33:26.279Z,99038.27
2017-11-05T03:36:27.759Z,99029.53
2017-11-05T03:39:29.226Z,99036.01
2017-11-05T03:42:31.466Z,99034.77
2017-11-05T03:45:32.926Z,99033.95
2017-11-05T03:48:34.327Z,99029.21
2017-11-05T03:51:35.769Z,99020.80
2017-11-05T03:54:37.974Z,99020.10
2017-11-05T03:57:39.409Z,99006.34
2017-11-05T04:00:40.869Z,99004.88
2017-11-05T04:03:42.351Z,99008.78
2017-11-05T04:06:43.810Z,99010.31
2017-11-05T04:09:45.260Z,99009.13
2017-11-05T04:12:46.678Z,99011.41
2017-11-05T04:15:48.111Z,99009.51
2017-11-05T04:18:50.320Z,99013.81
2017-11-05T04:21:51.788Z,98998.55
2017-11-05T04:24:53.206Z,99013.72
2017-11-05T04:27:54.753Z,99002.90
2017-11-05T04:30:56.209Z,99010.39
2017-11-05T04:33:57.606Z,99006.28
2017-11-05T04:36:59.091Z,99008.25
2017-11-05T04:40:01.286Z,98997.30
2017-11-05T04:43:02.769Z,98995.98
2017-11-05T04:46:04.184Z,99007.48
2017-11-05T04:49:05.688Z,99003.20
2017-11-05T04:52:07.098Z,98996.33
2017-11-05T04:55:08.523Z,99001.61
2017-11-05T04:58:10.783Z,99004.81
2017-11-05T05:01:12.931Z,99012.33
2017-11-05T05:04:14.387Z,99009.16
2017-11-05T05:07:15.846Z,99006.99
2017-11-05T05:10:17.368Z,99011.95
2017-11-05T05:13:18.867Z,99001.35
2017-11-05T05:16:21.027Z,99004.50
2017-11-05T05:19:22.474Z,99005.77
2017-11-05T05:22:23.924Z,99005.76
2017-11-05T05:25:25.376Z,99008.61
2017-11-05T05:28:26.842Z,99010.84
2017-11-05T05:31:28.296Z,99013.72
2017-11-05T05:34:29.722Z,99013.98
2017-11-05T05:37:31.168Z,99013.23
2017-11-05T05:40:32.599Z,99008.23
2017-11-05T05:43:34.180Z,99012.56
2017-11-05T05:46:35.619Z,99022.28
2017-11-05T05:49:37.154Z,99020.16
2017-11-05T05:52:38.602Z,99025.20
2017-11-05T05:55:40.036Z,99034.70
2017-11-05T05:58:42.345Z,99037.79
2017-11-05T06:01:43.764Z,99051.99
2017-11-05T06:04:45.260Z,99052.92
2017-11-05T06:07:46.669Z,99060.62
2017-11-05T06:10:48.869Z,99064.25
2017-11-05T06:13:50.276Z,99073.84
2017-11-05T06:16:52.469Z,99086.23
2017-11-05T06:19:53.892Z,99103.44
2017-11-05T06:22:55.320Z,99104.25
2017-11-05T06:25:56.766Z,99107.87
2017-11-05T06:28:58.142Z,99103.13
2017-11-05T06:31:59.606Z,99108.53
2017-11-05T06:35:01.737Z,99120.83
2017-11-05T06:38:03.172Z,99131.39
2017-11-05T06:41:04.569Z,99138.27
2017-11-05T06:44:06.043Z,99135.20
2017-11-05T06:47:08.232Z,99141.07
2017-11-05T06:50:09.679Z,99143.48
2017-11-05T06:53:11.073Z,99158.59
2017-11-05T06:56:12.518Z,99169.27
2017-11-05T06:59:14.043Z,99171.23
2017-11-05T07:02:15.437Z,99186.50
2017-11-05T07:05:17.627Z,99178.75
2017-11-05T07:08:19.833Z,99201.95
2017-11-05T07:11:21.307Z,99204.31
2017-11-05T07:14:22.733Z,99206.50
2017-11-05T07:17:24.203Z,99209.25
2017-11-05T07:20:25.618Z,99224.69
2017-11-05T07:23:27.061Z,99226.52
2017-11-05T07:26:28.542Z,99238.99
2017-11-05T07:29:29.958Z,99242.70
2017-11-05T07:32:31.461Z,99249.73
2017-11-05T07:35:32.876Z,99258.08
2017-11-05T07:38:35.032Z,99255.13
2017-11-05T07:41:37.197Z,99275.13
2017-11-05T07:44:38.661Z,99271.42
2017-11-05T07:47:40.868Z,99267.70
2017-11-05T07:50:42.268Z,99269.85
2017-11-05T07:53:43.685Z,99284.05
2017-11-05T07:56:45.131Z,99286.74
2017-11-05T07:59:46.588Z,99296.66
2017-11-05T08:02:48.040Z,99289.40
2017-11-05T08:05:49.488Z,99296.27
2017-11-05T08:08:50.903Z,99296.45
2017-11-05T08:11:53.120Z,99293.86
2017-11-05T08:14:54.708Z,99300.30
2017-11-05T08:17:56.151Z,99301.84
2017-11-05T08:20:57.575Z,99299.42
2017-11-05T08:23:59.109Z,99300.02
2017-11-05T08:27:00.600Z,99310.11
2017-11-05T08:30:02.044Z,99305.17
2017-11-05T08:33:03.491Z,99318.41
2017-11-05T08:36:04.934Z,99317.41
2017-11-05T08:39:06.390Z,99326.39
2017-11-05T08:42:07.855Z,99325.64
2017-11-05T08:45:09.319Z,99327.97
2017-11-05T08:48:10.824Z,99334.52
2017-11-05T08:51:12.272Z,99327.48
2017-11-05T08:54:13.720Z,99335.30
2017-11-05T08:57:15.159Z,99341.83
2017-11-05T09:00:17.376Z,99340.17
2017-11-05T09:03:18.798Z,99346.05
2017-11-05T09:06:21.012Z,99358.28
2017-11-05T09:09:22.565Z,99362.03
2017-11-05T09:12:24.041Z,99358.77
2017-11-05T09:15:25.487Z,99367.98
2017-11-05T09:18:26.942Z,99355.33
2017-11-05T09:21:28.437Z,99354.61
2017-11-05T09:24:30.588Z,99370.52
2017-11-05T09:27:31.995Z,99378.52
2017-11-05T09:30:33.392Z,99396.55
2017-11-05T09:33:35.641Z,99395.37
2017-11-05T09:36:37.056Z,99385.30
2017-11-05T09:39:38.500Z,99384.25
2017-11-05T09:42:39.930Z,99389.75
2017-11-05T09:45:43.423Z,99380.12
2017-11-05T09:48:44.955Z,99392.06
2017-11-05T09:51:46.400Z,99401.01
2017-11-05T09:54:47.892Z,99401.01
2017-11-05T09:57:50.054Z,99398.93
2017-11-05T10:00:52.283Z,99406.54
2017-11-05T10:03:53.690Z,99404.55
2017-11-05T10:06:55.296Z,99420.67
2017-11-05T10:09:56.871Z,99422.99
2017-11-05T10:12:58.478Z,99421.53
2017-11-05T10:16:00.007Z,99417.73
2017-11-05T10:19:01.519Z,99437.88
2017-11-05T10:22:03.150Z,99444.33
2017-11-05T10:25:04.861Z,99446.81
2017-11-05T10:28:07.114Z,99449.89
2017-11-05T10:31:08.643Z,99440.03
2017-11-05T10:34:10.151Z,99443.19
2017-11-05T10:37:12.292Z,99449.02
2017-11-05T10:40:13.710Z,99447.83
2017-11-05T10:43:15.153Z,99452.73
2017-11-05T10:46:16.571Z,99450.53
2017-11-05T10:49:18.759Z,99450.42
2017-11-05T10:52:20.173Z,99445.16
2017-11-05T10:55:21.650Z,99465.52
2017-11-05T10:58:23.795Z,99463.67
2017-11-05T11:01:25.249Z,99459.77
2017-11-05T11:04:26.672Z,99465.34
2017-11-05T11:07:28.051Z,99472.48
2017-11-05T11:10:29.535Z,99471.76
2017-11-05T11:13:30.938Z,99476.14
2017-11-05T11:16:32.349Z,99477.88
2017-11-05T11:19:33.778Z,99469.98
2017-11-05T11:22:35.982Z,99484.33
2017-11-05T11:25:37.475Z,99482.34
2017-11-05T11:28:38.970Z,99485.21
2017-11-05T11:31:41.171Z,99483.89
2017-11-05T11:34:42.604Z,99474.70
2017-11-05T11:37:44.025Z,99481.47
2017-11-05T11:40:46.233Z,99479.50
2017-11-05T11:43:47.797Z,99494.74
2017-11-05T11:46:49.638Z,99500.31
2017-11-05T11:49:51.127Z,99491.33
2017-11-05T11:52:52.595Z,99492.73
2017-11-05T11:55:54.166Z,99490.71
2017-11-05T11:58:55.681Z,99497.25
2017-11-05T12:01:57.171Z,99497.34
2017-11-05T12:04:59.468Z,99499.39
2017-11-05T12:08:01.694Z,99496.34
2017-11-05T12:14:12.811Z,99503.82
2017-11-05T12:20:23.107Z,99499.89
2017-11-05T12:23:25.335Z,99504.17
2017-11-05T12:26:26.757Z,99502.88
2017-11-05T12:29:28.221Z,99500.36
2017-11-05T12:32:29.704Z,99503.13
2017-11-05T12:35:31.452Z,99499.70
2017-11-05T12:38:33.423Z,99511.51
2017-11-05T12:41:34.915Z,99510.64
2017-11-05T12:44:38.651Z,99524.87
2017-11-05T12:47:40.497Z,99523.44
2017-11-05T12:50:42.042Z,99517.93
2017-11-05T12:53:45.076Z,99523.08
2017-11-05T12:56:47.311Z,99519.60
2017-11-05T12:59:50.809Z,99524.98
2017-11-05T13:02:52.450Z,99523.41
2017-11-05T13:05:56.186Z,99516.87
2017-11-05T13:08:58.772Z,99533.84
2017-11-05T13:12:00.792Z,99512.81
2017-11-05T13:15:02.715Z,99516.80
2017-11-05T13:18:04.856Z,99526.52
2017-11-05T13:21:06.725Z,99524.44
2017-11-05T13:24:08.750Z,99525.16
2017-11-05T13:27:11.512Z,99535.61
2017-11-05T13:30:13.577Z,99536.70
2017-11-05T13:33:15.744Z,99542.63
2017-11-05T13:36:17.534Z,99545.63
2017-11-05T13:39:19.502Z,99553.54
2017-11-05T13:42:21.050Z,99543.75
2017-11-05T13:45:23.284Z,99552.48
2017-11-05T13:48:24.705Z,99549.36
2017-11-05T13:51:26.944Z,99556.00
2017-11-05T13:54:28.366Z,99558.44
2017-11-05T13:57:29.811Z,99555.78
2017-11-05T14:00:31.278Z,99559.39
2017-11-05T14:03:32.752Z,99563.31
2017-11-05T14:06:34.223Z,99563.32
2017-11-05T14:09:35.632Z,99580.69
2017-11-05T14:12:37.112Z,99556.16
2017-11-05T14:15:38.503Z,99570.05
2017-11-05T14:18:40.681Z,99587.39
2017-11-05T14:21:42.069Z,99570.37
2017-11-05T14:24:43.527Z,99585.02
2017-11-05T14:27:44.972Z,99578.29
2017-11-05T14:30:46.435Z,99581.31
2017-11-05T14:36:49.175Z,99583.27
2017-11-05T14:39:51.348Z,99585.89
2017-11-05T14:42:53.505Z,99592.48
2017-11-05T14:45:54.942Z,99599.42
2017-11-05T14:48:56.382Z,99613.48
2017-11-05T14:51:57.859Z,99611.11
2017-11-05T14:54:59.263Z,99620.60
2017-11-05T14:58:00.767Z,99656.56
2017-11-05T15:01:02.249Z,99668.25
2017-11-05T15:04:03.673Z,99688.92
2017-11-05T15:07:05.076Z,99690.30
2017-11-05T15:10:06.528Z,99684.38
2017-11-05T15:13:07.946Z,99707.11
2017-11-05T15:16:10.137Z,99702.27
2017-11-05T15:19:11.591Z,99705.78
2017-11-05T15:22:12.999Z,99710.13
2017-11-05T15:25:15.168Z,99699.56
2017-11-05T15:28:16.629Z,99707.33
2017-11-05T15:31:18.839Z,99712.61
2017-11-05T15:34:20.346Z,99707.73
2017-11-05T15:37:21.796Z,99723.91
2017-11-05T15:40:23.264Z,99733.87
2017-11-05T15:43:25.428Z,99740.86
2017-11-05T15:46:26.876Z,99737.05
2017-11-05T15:49:28.314Z,99751.11
2017-11-05T15:52:30.744Z,99755.30
2017-11-05T15:55:32.206Z,99759.27
2017-11-05T15:58:33.644Z,99765.88
2017-11-05T16:01:35.148Z,99773.23
2017-11-05T16:04:36.506Z,99781.88
2017-11-05T16:07:38.016Z,99784.88
2017-11-05T16:10:39.404Z,99800.94
2017-11-05T16:13:40.854Z,99810.06
2017-11-05T16:16:42.997Z,99818.05
2017-11-05T16:19:44.463Z,99819.14
2017-11-05T16:22:45.853Z,99826.79
2017-11-05T16:25:47.992Z,99824.74
2017-11-05T16:28:49.448Z,99836.16
2017-11-05T16:31:51.567Z,99840.95
2017-11-05T16:34:53.042Z,99841.04
2017-11-05T16:37:54.452Z,99852.97
2017-11-05T16:40:56.630Z,99855.48
2017-11-05T16:43:58.036Z,99848.65
2017-11-05T16:46:59.461Z,99861.30
2017-11-05T16:50:00.850Z,99852.42
2017-11-05T16:53:02.237Z,99867.41
2017-11-05T16:56:03.729Z,99872.00
2017-11-05T16:59:05.153Z,99882.67
2017-11-05T17:02:06.623Z,99879.44
2017-11-05T17:05:08.052Z,99872.48
2017-11-05T17:08:09.605Z,99884.69
2017-11-05T17:11:11.100Z,99884.72
2017-11-05T17:14:12.568Z,99893.79
2017-11-05T17:17:13.963Z,99884.05
2017-11-05T17:20:15.439Z,99893.44
2017-11-05T17:23:16.852Z,99898.79
2017-11-05T17:26:19.039Z,99904.56
2017-11-05T17:29:20.531Z,99908.26
2017-11-05T17:32:23.580Z,99914.33
2017-11-05T17:35:25.059Z,99916.23
2017-11-05T17:38:27.974Z,99918.70
2017-11-05T17:41:29.564Z,99918.52
2017-11-05T17:44:31.769Z,99919.02
2017-11-05T17:47:33.193Z,99917.78
2017-11-05T17:50:34.619Z,99916.16
2017-11-05T17:53:36.006Z,99926.41
2017-11-05T17:56:37.432Z,99933.22
2017-11-05T17:59:39.826Z,99929.38
2017-11-05T18:02:41.930Z,99929.50
2017-11-05T18:05:44.065Z,99928.75
2017-11-05T18:08:45.498Z,99929.89
2017-11-05T18:11:48.563Z,99938.92
2017-11-05T18:14:50.463Z,99925.95
2017-11-05T18:17:52.010Z,99942.45
2017-11-05T18:20:54.695Z,99933.14
2017-11-05T18:23:56.637Z,99946.88
2017-11-05T18:26:58.296Z,99941.16
2017-11-05T18:30:01.188Z,99952.48
2017-11-05T18:33:03.355Z,99958.62
2017-11-05T18:36:04.806Z,99956.80
2017-11-05T18:39:07.167Z,99962.70
2017-11-05T18:42:08.933Z,99973.62
2017-11-05T18:45:12.135Z,99955.17
2017-11-05T18:48:13.693Z,99976.05
2017-11-05T18:51:16.751Z,99977.04
2017-11-05T18:54:20.304Z,99982.69
2017-11-05T18:57:22.210Z,99981.08
2017-11-05T19:00:26.333Z,99977.86
2017-11-05T19:03:27.885Z,99986.36
2017-11-05T19:06:29.420Z,99986.84
2017-11-05T19:09:30.937Z,99996.05
2017-11-05T19:12:33.220Z,99990.30
2017-11-05T19:15:34.713Z,100007.39
2017-11-05T19:18:36.190Z,100008.06
2017-11-05T19:21:39.709Z,100009.16
2017-11-05T19:24:42.708Z,100014.09
2017-11-05T19:27:44.287Z,100005.12
2017-11-05T19:30:45.791Z,100009.62
2017-11-05T19:33:47.641Z,99988.30
2017-11-05T19:36:50.355Z,100012.81
2017-11-05T19:39:52.050Z,100015.43
2017-11-05T19:42:53.611Z,100013.46
2017-11-05T19:45:56.539Z,100022.92
2017-11-05T19:48:58.375Z,100021.54
2017-11-05T19:55:10.901Z,100031.06
2017-11-05T19:58:12.451Z,100032.22
2017-11-05T20:01:15.187Z,100037.55
2017-11-05T20:04:18.113Z,100046.38
2017-11-05T20:07:23.080Z,100052.09
2017-11-05T20:10:27.336Z,100058.56
2017-11-05T20:13:29.320Z,100061.01
2017-11-05T20:16:31.573Z,100062.89
2017-11-05T20:19:34.381Z,100065.57
2017-11-05T20:22:36.130Z,100070.42
2017-11-05T20:25:38.153Z,100069.41
2017-11-05T20:28:40.103Z,100077.05
2017-11-05T20:31:41.631Z,100085.11
2017-11-05T20:34:44.047Z,100083.27
2017-11-05T20:37:45.696Z,100088.98
2017-11-05T20:40:48.533Z,100064.88
2017-11-05T20:43:50.903Z,100084.16
2017-11-05T20:46:52.984Z,100093.55
2017-11-05T20:49:56.381Z,100097.95
2017-11-05T20:52:58.530Z,100099.38
2017-11-05T20:56:02.263Z,100107.98
2017-11-05T20:59:03.938Z,100106.96
2017-11-05T21:02:05.772Z,100112.75
2017-11-05T21:05:07.235Z,100110.23
2017-11-05T21:08:08.721Z,100117.14
2017-11-05T21:11:11.485Z,100128.89
2017-11-05T21:14:12.935Z,100121.30
2017-11-05T21:17:14.411Z,100128.43
2017-11-05T21:20:15.903Z,100135.91
2017-11-05T21:23:18.522Z,100117.77
2017-11-05T21:26:20.822Z,100128.50
2017-11-05T21:29:24.433Z,100089.52
2017-11-05T21:32:27.253Z,100120.45
2017-11-05T21:35:28.759Z,100130.47
2017-11-05T21:38:31.083Z,100138.38
2017-11-05T21:41:33.597Z,100137.36
2017-11-05T21:44:35.300Z,100131.51
2017-11-05T21:47:37.563Z,100139.77
2017-11-05T21:50:39.039Z,100137.56
2017-11-05T21:53:41.243Z,100142.52
2017-11-05T21:56:42.670Z,100140.32
2017-11-05T21:59:44.160Z,100143.02
2017-11-05T22:02:45.668Z,100139.41
2017-11-05T22:05:47.874Z,100146.38
2017-11-05T22:08:49.359Z,100149.41
2017-11-05T22:11:50.879Z,100147.32
2017-11-05T22:14:52.322Z,100124.45
2017-11-05T22:17:53.780Z,100142.20
2017-11-05T22:20:55.233Z,100146.70
2017-11-05T22:23:56.680Z,100150.80
2017-11-05T22:26:58.111Z,100159.84
2017-11-05T22:30:00.354Z,100162.27
2017-11-05T22:33:01.819Z,100172.96
2017-11-05T22:36:04.395Z,100161.64
2017-11-05T22:39:06.274Z,100168.75
2017-11-05T22:42:08.173Z,100166.09
2017-11-05T22:45:10.028Z,100172.80
2017-11-05T22:48:11.516Z,100170.84
2017-11-05T22:51:12.920Z,100173.97
2017-11-05T22:54:14.408Z,100168.91
2017-11-05T22:57:15.784Z,100178.31
2017-11-05T23:00:17.275Z,100182.25
2017-11-05T23:03:18.796Z,100178.80
2017-11-05T23:06:20.279Z,100185.77
2017-11-05T23:09:21.748Z,100180.08
2017-11-05T23:12:23.168Z,100178.14
2017-11-05T23:15:25.455Z,100187.88
2017-11-05T23:18:26.864Z,100177.24
2017-11-05T23:21:28.368Z,100190.10
2017-11-05T23:24:29.772Z,100172.58
2017-11-05T23:27:31.585Z,100188.40
2017-11-05T23:30:33.041Z,100182.52
2017-11-05T23:33:34.436Z,100192.25
2017-11-05T23:36:35.979Z,100185.38
2017-11-05T23:39:37.416Z,100184.22
2017-11-05T23:42:38.831Z,100191.27
2017-11-05T23:45:41.056Z,100207.06
2017-11-05T23:48:43.280Z,100191.97
2017-11-05T23:51:44.764Z,100198.51
2017-11-05T23:54:46.212Z,100198.77
2017-11-05T23:57:47.647Z,100202.02
